sensor_id;sensor_type;location;lat;lon;timestamp;temperature;humidity
9448;DHT22;4762;48.128;11.376;2022-07-29T00:00:37;19.70;82.70
9448;DHT22;4762;48.128;11.376;2022-07-29T00:02:39;19.70;83.00
9448;DHT22;4762;48.128;11.376;2022-07-29T00:04:42;19.70;83.00
9448;DHT22;4762;48.128;11.376;2022-07-29T00:06:47;19.60;83.50
9448;DHT22;4762;48.128;11.376;2022-07-29T00:26:09;19.30;84.40
9448;DHT22;4762;48.128;11.376;2022-07-29T00:28:11;19.20;84.70
9448;DHT22;4762;48.128;11.376;2022-07-29T00:30:14;19.20;85.10
9448;DHT22;4762;48.128;11.376;2022-07-29T00:32:16;19.30;85.80
9448;DHT22;4762;48.128;11.376;2022-07-29T00:34:19;19.20;85.50
9448;DHT22;4762;48.128;11.376;2022-07-29T00:36:26;19.20;86.50
9448;DHT22;4762;48.128;11.376;2022-07-29T00:38:29;19.10;86.70
9448;DHT22;4762;48.128;11.376;2022-07-29T00:40:32;19.00;86.30
9448;DHT22;4762;48.128;11.376;2022-07-29T00:42:41;19.00;86.40
9448;DHT22;4762;48.128;11.376;2022-07-29T00:44:43;19.10;86.40
9448;DHT22;4762;48.128;11.376;2022-07-29T00:46:46;19.10;85.60
9448;DHT22;4762;48.128;11.376;2022-07-29T00:48:49;19.10;85.30
9448;DHT22;4762;48.128;11.376;2022-07-29T00:50:51;19.30;85.20
9448;DHT22;4762;48.128;11.376;2022-07-29T00:52:54;19.20;84.70
9448;DHT22;4762;48.128;11.376;2022-07-29T00:54:56;19.30;84.60
9448;DHT22;4762;48.128;11.376;2022-07-29T00:56:59;19.40;84.40
9448;DHT22;4762;48.128;11.376;2022-07-29T00:59:02;19.50;84.70
9448;DHT22;4762;48.128;11.376;2022-07-29T01:01:05;19.50;84.20
9448;DHT22;4762;48.128;11.376;2022-07-29T01:03:08;19.50;84.20
9448;DHT22;4762;48.128;11.376;2022-07-29T01:05:10;19.50;83.70
9448;DHT22;4762;48.128;11.376;2022-07-29T01:07:13;19.60;83.80
9448;DHT22;4762;48.128;11.376;2022-07-29T01:09:17;19.50;83.50
9448;DHT22;4762;48.128;11.376;2022-07-29T01:11:21;19.60;83.70
9448;DHT22;4762;48.128;11.376;2022-07-29T01:13:24;19.60;83.50
9448;DHT22;4762;48.128;11.376;2022-07-29T01:15:27;19.40;83.50
9448;DHT22;4762;48.128;11.376;2022-07-29T01:19:56;19.40;82.80
9448;DHT22;4762;48.128;11.376;2022-07-29T01:21:55;19.30;82.90
9448;DHT22;4762;48.128;11.376;2022-07-29T01:26:46;19.40;82.50
9448;DHT22;4762;48.128;11.376;2022-07-29T01:28:59;19.40;82.40
9448;DHT22;4762;48.128;11.376;2022-07-29T01:45:49;19.40;81.70
9448;DHT22;4762;48.128;11.376;2022-07-29T01:48:03;19.40;81.60
9448;DHT22;4762;48.128;11.376;2022-07-29T01:50:08;19.50;81.50
9448;DHT22;4762;48.128;11.376;2022-07-29T01:52:11;19.40;81.60
9448;DHT22;4762;48.128;11.376;2022-07-29T01:54:16;19.50;81.60
9448;DHT22;4762;48.128;11.376;2022-07-29T01:56:16;19.60;81.10
9448;DHT22;4762;48.128;11.376;2022-07-29T01:58:18;19.50;81.50
9448;DHT22;4762;48.128;11.376;2022-07-29T02:00:20;19.30;81.60
9448;DHT22;4762;48.128;11.376;2022-07-29T02:02:22;19.30;81.30
9448;DHT22;4762;48.128;11.376;2022-07-29T02:04:25;19.20;81.70
9448;DHT22;4762;48.128;11.376;2022-07-29T02:06:28;19.10;81.40
9448;DHT22;4762;48.128;11.376;2022-07-29T02:08:30;19.10;81.30
9448;DHT22;4762;48.128;11.376;2022-07-29T02:10:35;19.20;81.50
9448;DHT22;4762;48.128;11.376;2022-07-29T02:12:39;19.20;81.20
9448;DHT22;4762;48.128;11.376;2022-07-29T02:14:46;19.20;81.20
9448;DHT22;4762;48.128;11.376;2022-07-29T02:16:47;19.10;81.10
9448;DHT22;4762;48.128;11.376;2022-07-29T02:18:50;19.10;81.30
9448;DHT22;4762;48.128;11.376;2022-07-29T02:20:52;19.10;81.60
9448;DHT22;4762;48.128;11.376;2022-07-29T02:22:54;19.10;81.60
9448;DHT22;4762;48.128;11.376;2022-07-29T02:24:57;19.00;81.70
9448;DHT22;4762;48.128;11.376;2022-07-29T02:26:59;19.10;81.70
9448;DHT22;4762;48.128;11.376;2022-07-29T02:29:02;18.90;81.50
9448;DHT22;4762;48.128;11.376;2022-07-29T02:31:04;18.90;81.70
9448;DHT22;4762;48.128;11.376;2022-07-29T02:33:07;18.90;81.60
9448;DHT22;4762;48.128;11.376;2022-07-29T02:35:10;18.80;82.00
9448;DHT22;4762;48.128;11.376;2022-07-29T02:37:12;18.80;82.30
9448;DHT22;4762;48.128;11.376;2022-07-29T02:39:15;18.70;82.50
9448;DHT22;4762;48.128;11.376;2022-07-29T02:41:24;18.80;82.30
9448;DHT22;4762;48.128;11.376;2022-07-29T02:43:28;18.70;82.80
9448;DHT22;4762;48.128;11.376;2022-07-29T02:45:30;18.40;83.10
9448;DHT22;4762;48.128;11.376;2022-07-29T02:47:35;18.40;83.50
9448;DHT22;4762;48.128;11.376;2022-07-29T02:49:39;18.40;83.10
9448;DHT22;4762;48.128;11.376;2022-07-29T02:51:49;18.50;83.40
9448;DHT22;4762;48.128;11.376;2022-07-29T02:53:51;18.30;83.50
9448;DHT22;4762;48.128;11.376;2022-07-29T02:55:55;18.20;84.00
9448;DHT22;4762;48.128;11.376;2022-07-29T02:58:01;18.20;84.20
9448;DHT22;4762;48.128;11.376;2022-07-29T03:00:05;18.20;83.70
9448;DHT22;4762;48.128;11.376;2022-07-29T03:02:06;18.20;83.80
9448;DHT22;4762;48.128;11.376;2022-07-29T03:04:09;17.90;84.50
9448;DHT22;4762;48.128;11.376;2022-07-29T03:06:12;18.00;84.90
9448;DHT22;4762;48.128;11.376;2022-07-29T03:08:14;18.00;85.00
9448;DHT22;4762;48.128;11.376;2022-07-29T03:10:17;18.00;85.00
9448;DHT22;4762;48.128;11.376;2022-07-29T03:12:21;17.90;85.30
9448;DHT22;4762;48.128;11.376;2022-07-29T03:14:24;17.90;84.80
9448;DHT22;4762;48.128;11.376;2022-07-29T03:16:26;17.90;85.00
9448;DHT22;4762;48.128;11.376;2022-07-29T03:18:30;18.00;85.20
9448;DHT22;4762;48.128;11.376;2022-07-29T03:20:32;17.90;85.40
9448;DHT22;4762;48.128;11.376;2022-07-29T03:22:40;17.90;85.60
9448;DHT22;4762;48.128;11.376;2022-07-29T03:24:42;17.90;85.50
9448;DHT22;4762;48.128;11.376;2022-07-29T03:26:44;17.80;85.50
9448;DHT22;4762;48.128;11.376;2022-07-29T03:28:46;17.80;85.60
9448;DHT22;4762;48.128;11.376;2022-07-29T03:30:49;17.80;85.00
9448;DHT22;4762;48.128;11.376;2022-07-29T03:32:52;17.70;85.80
9448;DHT22;4762;48.128;11.376;2022-07-29T03:34:57;17.50;86.30
9448;DHT22;4762;48.128;11.376;2022-07-29T03:37:00;17.50;86.60
9448;DHT22;4762;48.128;11.376;2022-07-29T03:39:02;17.60;86.40
9448;DHT22;4762;48.128;11.376;2022-07-29T03:41:06;17.60;86.40
9448;DHT22;4762;48.128;11.376;2022-07-29T03:43:08;17.50;86.30
9448;DHT22;4762;48.128;11.376;2022-07-29T03:45:13;17.60;86.20
9448;DHT22;4762;48.128;11.376;2022-07-29T03:47:17;17.60;86.10
9448;DHT22;4762;48.128;11.376;2022-07-29T03:49:19;17.70;86.00
9448;DHT22;4762;48.128;11.376;2022-07-29T03:51:21;17.70;85.60
9448;DHT22;4762;48.128;11.376;2022-07-29T03:53:24;17.70;86.00
9448;DHT22;4762;48.128;11.376;2022-07-29T03:55:28;17.70;85.80
9448;DHT22;4762;48.128;11.376;2022-07-29T03:57:30;17.70;85.60
9448;DHT22;4762;48.128;11.376;2022-07-29T03:59:32;17.80;85.30
9448;DHT22;4762;48.128;11.376;2022-07-29T04:01:35;17.90;85.50
9448;DHT22;4762;48.128;11.376;2022-07-29T04:03:38;17.90;85.50
9448;DHT22;4762;48.128;11.376;2022-07-29T04:05:41;17.90;85.30
9448;DHT22;4762;48.128;11.376;2022-07-29T04:07:45;18.00;84.90
9448;DHT22;4762;48.128;11.376;2022-07-29T04:09:47;18.10;85.00
9448;DHT22;4762;48.128;11.376;2022-07-29T04:11:50;18.20;84.10
9448;DHT22;4762;48.128;11.376;2022-07-29T04:13:52;18.20;84.10
9448;DHT22;4762;48.128;11.376;2022-07-29T04:15:56;18.20;84.50
9448;DHT22;4762;48.128;11.376;2022-07-29T04:18:00;18.30;84.50
9448;DHT22;4762;48.128;11.376;2022-07-29T04:20:02;18.40;84.50
9448;DHT22;4762;48.128;11.376;2022-07-29T04:22:06;18.20;84.30
9448;DHT22;4762;48.128;11.376;2022-07-29T04:24:08;18.10;85.40
9448;DHT22;4762;48.128;11.376;2022-07-29T04:26:11;18.20;84.90
9448;DHT22;4762;48.128;11.376;2022-07-29T04:28:13;18.50;84.70
9448;DHT22;4762;48.128;11.376;2022-07-29T04:30:16;18.40;84.50
9448;DHT22;4762;48.128;11.376;2022-07-29T04:32:20;18.40;84.50
9448;DHT22;4762;48.128;11.376;2022-07-29T04:34:22;18.30;84.80
9448;DHT22;4762;48.128;11.376;2022-07-29T04:36:25;18.30;84.70
9448;DHT22;4762;48.128;11.376;2022-07-29T04:38:27;18.30;85.10
9448;DHT22;4762;48.128;11.376;2022-07-29T04:40:30;18.40;84.90
9448;DHT22;4762;48.128;11.376;2022-07-29T04:42:33;18.40;85.00
9448;DHT22;4762;48.128;11.376;2022-07-29T04:44:35;18.40;85.10
9448;DHT22;4762;48.128;11.376;2022-07-29T04:46:38;18.30;84.50
9448;DHT22;4762;48.128;11.376;2022-07-29T04:48:40;18.40;84.90
9448;DHT22;4762;48.128;11.376;2022-07-29T04:50:42;18.40;85.20
9448;DHT22;4762;48.128;11.376;2022-07-29T04:52:45;18.20;85.00
9448;DHT22;4762;48.128;11.376;2022-07-29T04:54:51;18.30;85.30
9448;DHT22;4762;48.128;11.376;2022-07-29T04:56:54;18.40;85.00
9448;DHT22;4762;48.128;11.376;2022-07-29T04:58:56;18.50;85.00
9448;DHT22;4762;48.128;11.376;2022-07-29T05:00:58;18.50;85.00
9448;DHT22;4762;48.128;11.376;2022-07-29T05:20:18;18.60;85.10
9448;DHT22;4762;48.128;11.376;2022-07-29T05:22:21;18.70;84.60
9448;DHT22;4762;48.128;11.376;2022-07-29T05:24:25;18.90;84.90
9448;DHT22;4762;48.128;11.376;2022-07-29T05:26:28;19.20;83.60
9448;DHT22;4762;48.128;11.376;2022-07-29T05:28:33;19.40;82.80
9448;DHT22;4762;48.128;11.376;2022-07-29T05:30:38;19.60;82.60
9448;DHT22;4762;48.128;11.376;2022-07-29T05:32:41;19.70;83.70
9448;DHT22;4762;48.128;11.376;2022-07-29T05:34:45;20.00;81.90
9448;DHT22;4762;48.128;11.376;2022-07-29T05:36:48;20.50;81.70
9448;DHT22;4762;48.128;11.376;2022-07-29T05:38:51;20.70;80.40
9448;DHT22;4762;48.128;11.376;2022-07-29T05:40:56;20.70;79.70
9448;DHT22;4762;48.128;11.376;2022-07-29T05:42:58;21.00;81.20
9448;DHT22;4762;48.128;11.376;2022-07-29T05:45:01;21.30;78.30
9448;DHT22;4762;48.128;11.376;2022-07-29T05:47:04;20.90;78.20
9448;DHT22;4762;48.128;11.376;2022-07-29T05:49:06;20.70;79.10
9448;DHT22;4762;48.128;11.376;2022-07-29T05:51:10;20.70;80.60
9448;DHT22;4762;48.128;11.376;2022-07-29T05:53:13;20.80;79.20
9448;DHT22;4762;48.128;11.376;2022-07-29T05:55:16;21.50;79.20
9448;DHT22;4762;48.128;11.376;2022-07-29T05:57:20;21.80;76.50
9448;DHT22;4762;48.128;11.376;2022-07-29T05:59:23;22.10;77.30
9448;DHT22;4762;48.128;11.376;2022-07-29T06:01:26;22.60;76.90
9448;DHT22;4762;48.128;11.376;2022-07-29T06:03:29;22.70;75.80
9448;DHT22;4762;48.128;11.376;2022-07-29T06:05:32;22.90;73.20
9448;DHT22;4762;48.128;11.376;2022-07-29T06:25:12;22.30;74.60
9448;DHT22;4762;48.128;11.376;2022-07-29T06:27:15;22.60;73.20
9448;DHT22;4762;48.128;11.376;2022-07-29T06:46:47;24.30;68.50
9448;DHT22;4762;48.128;11.376;2022-07-29T06:48:51;24.40;68.00
9448;DHT22;4762;48.128;11.376;2022-07-29T06:50:53;24.70;66.80
9448;DHT22;4762;48.128;11.376;2022-07-29T06:53:00;25.50;67.30
9448;DHT22;4762;48.128;11.376;2022-07-29T06:55:13;24.70;66.50
9448;DHT22;4762;48.128;11.376;2022-07-29T06:57:18;24.60;66.90
9448;DHT22;4762;48.128;11.376;2022-07-29T06:59:21;24.30;67.70
9448;DHT22;4762;48.128;11.376;2022-07-29T07:01:24;24.90;66.00
9448;DHT22;4762;48.128;11.376;2022-07-29T07:03:26;25.30;64.90
9448;DHT22;4762;48.128;11.376;2022-07-29T07:05:29;25.50;66.60
9448;DHT22;4762;48.128;11.376;2022-07-29T07:07:31;25.80;63.50
9448;DHT22;4762;48.128;11.376;2022-07-29T07:09:34;25.30;66.00
9448;DHT22;4762;48.128;11.376;2022-07-29T07:11:37;25.70;64.10
9448;DHT22;4762;48.128;11.376;2022-07-29T07:13:41;25.80;63.80
9448;DHT22;4762;48.128;11.376;2022-07-29T07:15:44;26.10;62.70
9448;DHT22;4762;48.128;11.376;2022-07-29T07:17:49;25.70;62.20
9448;DHT22;4762;48.128;11.376;2022-07-29T07:19:52;25.80;61.80
9448;DHT22;4762;48.128;11.376;2022-07-29T07:22:00;25.10;63.10
9448;DHT22;4762;48.128;11.376;2022-07-29T07:24:03;25.80;62.40
9448;DHT22;4762;48.128;11.376;2022-07-29T07:26:06;26.00;62.20
9448;DHT22;4762;48.128;11.376;2022-07-29T07:28:11;25.60;62.10
9448;DHT22;4762;48.128;11.376;2022-07-29T07:30:13;25.10;63.00
9448;DHT22;4762;48.128;11.376;2022-07-29T07:32:16;25.90;61.60
9448;DHT22;4762;48.128;11.376;2022-07-29T07:34:18;26.20;60.40
9448;DHT22;4762;48.128;11.376;2022-07-29T07:36:23;26.20;63.00
9448;DHT22;4762;48.128;11.376;2022-07-29T07:38:26;26.40;59.50
9448;DHT22;4762;48.128;11.376;2022-07-29T07:40:29;27.00;59.30
9448;DHT22;4762;48.128;11.376;2022-07-29T07:42:41;26.40;60.10
9448;DHT22;4762;48.128;11.376;2022-07-29T07:44:43;26.60;60.00
9448;DHT22;4762;48.128;11.376;2022-07-29T07:46:46;26.60;59.70
9448;DHT22;4762;48.128;11.376;2022-07-29T07:48:50;27.10;59.50
9448;DHT22;4762;48.128;11.376;2022-07-29T07:51:04;26.40;58.00
9448;DHT22;4762;48.128;11.376;2022-07-29T07:53:08;26.10;61.40
9448;DHT22;4762;48.128;11.376;2022-07-29T07:55:11;26.80;59.00
9448;DHT22;4762;48.128;11.376;2022-07-29T07:57:14;27.40;58.20
9448;DHT22;4762;48.128;11.376;2022-07-29T07:59:21;28.60;58.00
9448;DHT22;4762;48.128;11.376;2022-07-29T08:01:25;28.00;56.30
9448;DHT22;4762;48.128;11.376;2022-07-29T08:03:33;27.90;57.40
9448;DHT22;4762;48.128;11.376;2022-07-29T08:05:38;28.20;57.20
9448;DHT22;4762;48.128;11.376;2022-07-29T08:07:46;28.80;56.00
9448;DHT22;4762;48.128;11.376;2022-07-29T08:27:07;29.60;53.20
9448;DHT22;4762;48.128;11.376;2022-07-29T08:29:09;29.50;53.50
9448;DHT22;4762;48.128;11.376;2022-07-29T08:31:12;29.30;53.90
9448;DHT22;4762;48.128;11.376;2022-07-29T08:33:16;29.30;55.00
9448;DHT22;4762;48.128;11.376;2022-07-29T08:35:20;29.50;53.20
9448;DHT22;4762;48.128;11.376;2022-07-29T08:37:22;28.60;54.80
9448;DHT22;4762;48.128;11.376;2022-07-29T08:39:24;28.50;55.70
9448;DHT22;4762;48.128;11.376;2022-07-29T08:41:28;28.40;55.60
9448;DHT22;4762;48.128;11.376;2022-07-29T08:43:30;28.50;55.30
9448;DHT22;4762;48.128;11.376;2022-07-29T08:45:47;27.20;56.70
9448;DHT22;4762;48.128;11.376;2022-07-29T08:47:48;27.50;57.50
9448;DHT22;4762;48.128;11.376;2022-07-29T08:49:52;27.70;56.60
9448;DHT22;4762;48.128;11.376;2022-07-29T08:51:55;27.90;56.00
9448;DHT22;4762;48.128;11.376;2022-07-29T08:53:57;27.80;55.90
9448;DHT22;4762;48.128;11.376;2022-07-29T08:56:01;27.90;56.40
9448;DHT22;4762;48.128;11.376;2022-07-29T08:58:05;27.50;56.40
9448;DHT22;4762;48.128;11.376;2022-07-29T09:00:08;26.70;58.40
9448;DHT22;4762;48.128;11.376;2022-07-29T09:02:12;27.00;58.10
9448;DHT22;4762;48.128;11.376;2022-07-29T09:04:13;27.30;58.30
9448;DHT22;4762;48.128;11.376;2022-07-29T09:06:17;27.80;56.70
9448;DHT22;4762;48.128;11.376;2022-07-29T09:08:18;28.80;57.30
9448;DHT22;4762;48.128;11.376;2022-07-29T09:10:29;28.90;55.90
9448;DHT22;4762;48.128;11.376;2022-07-29T09:12:33;28.70;56.00
9448;DHT22;4762;48.128;11.376;2022-07-29T09:14:38;29.60;53.00
9448;DHT22;4762;48.128;11.376;2022-07-29T09:16:46;29.00;54.60
9448;DHT22;4762;48.128;11.376;2022-07-29T09:18:47;29.70;52.60
9448;DHT22;4762;48.128;11.376;2022-07-29T09:20:51;29.20;53.80
9448;DHT22;4762;48.128;11.376;2022-07-29T09:23:07;28.90;55.10
9448;DHT22;4762;48.128;11.376;2022-07-29T09:25:01;28.20;56.30
9448;DHT22;4762;48.128;11.376;2022-07-29T09:27:05;27.50;56.70
9448;DHT22;4762;48.128;11.376;2022-07-29T09:29:15;26.60;57.70
9448;DHT22;4762;48.128;11.376;2022-07-29T09:31:18;26.90;57.70
9448;DHT22;4762;48.128;11.376;2022-07-29T09:33:21;27.50;56.90
9448;DHT22;4762;48.128;11.376;2022-07-29T09:35:25;27.60;57.90
9448;DHT22;4762;48.128;11.376;2022-07-29T09:37:27;27.20;56.80
9448;DHT22;4762;48.128;11.376;2022-07-29T09:39:32;27.50;57.50
9448;DHT22;4762;48.128;11.376;2022-07-29T09:41:44;27.60;57.40
9448;DHT22;4762;48.128;11.376;2022-07-29T09:43:57;27.70;56.60
9448;DHT22;4762;48.128;11.376;2022-07-29T09:46:10;27.90;57.10
9448;DHT22;4762;48.128;11.376;2022-07-29T09:48:16;27.50;57.70
9448;DHT22;4762;48.128;11.376;2022-07-29T09:50:17;26.60;59.10
9448;DHT22;4762;48.128;11.376;2022-07-29T09:52:19;26.80;60.80
9448;DHT22;4762;48.128;11.376;2022-07-29T09:54:24;27.20;59.40
9448;DHT22;4762;48.128;11.376;2022-07-29T09:56:39;27.70;59.30
9448;DHT22;4762;48.128;11.376;2022-07-29T09:58:40;28.40;57.80
9448;DHT22;4762;48.128;11.376;2022-07-29T10:00:43;28.90;56.50
9448;DHT22;4762;48.128;11.376;2022-07-29T10:02:46;27.80;56.50
9448;DHT22;4762;48.128;11.376;2022-07-29T10:04:47;27.80;58.30
9448;DHT22;4762;48.128;11.376;2022-07-29T10:06:56;28.10;56.30
9448;DHT22;4762;48.128;11.376;2022-07-29T10:09:07;29.10;56.40
9448;DHT22;4762;48.128;11.376;2022-07-29T10:11:12;29.70;53.90
9448;DHT22;4762;48.128;11.376;2022-07-29T10:13:14;30.30;51.90
9448;DHT22;4762;48.128;11.376;2022-07-29T10:42:13;28.40;55.60
9448;DHT22;4762;48.128;11.376;2022-07-29T10:44:16;29.30;54.60
9448;DHT22;4762;48.128;11.376;2022-07-29T10:46:17;29.50;54.20
9448;DHT22;4762;48.128;11.376;2022-07-29T10:48:21;30.40;53.10
9448;DHT22;4762;48.128;11.376;2022-07-29T10:50:23;31.00;49.20
9448;DHT22;4762;48.128;11.376;2022-07-29T10:52:53;32.20;49.30
9448;DHT22;4762;48.128;11.376;2022-07-29T10:54:56;31.90;48.10
9448;DHT22;4762;48.128;11.376;2022-07-29T10:57:31;31.50;50.50
9448;DHT22;4762;48.128;11.376;2022-07-29T10:59:29;31.90;48.60
9448;DHT22;4762;48.128;11.376;2022-07-29T11:01:31;29.80;51.00
9448;DHT22;4762;48.128;11.376;2022-07-29T11:06:07;32.40;48.10
9448;DHT22;4762;48.128;11.376;2022-07-29T11:08:20;32.40;46.40
9448;DHT22;4762;48.128;11.376;2022-07-29T11:10:24;32.70;44.00
9448;DHT22;4762;48.128;11.376;2022-07-29T11:12:46;33.20;46.10
9448;DHT22;4762;48.128;11.376;2022-07-29T11:14:55;32.10;44.30
9448;DHT22;4762;48.128;11.376;2022-07-29T11:17:04;30.40;47.30
9448;DHT22;4762;48.128;11.376;2022-07-29T11:19:19;31.00;48.30
9448;DHT22;4762;48.128;11.376;2022-07-29T11:21:34;32.30;46.80
9448;DHT22;4762;48.128;11.376;2022-07-29T11:23:37;32.70;45.10
9448;DHT22;4762;48.128;11.376;2022-07-29T11:25:43;33.60;45.50
9448;DHT22;4762;48.128;11.376;2022-07-29T11:28:07;32.40;44.90
9448;DHT22;4762;48.128;11.376;2022-07-29T11:29:59;31.30;47.20
9448;DHT22;4762;48.128;11.376;2022-07-29T11:32:10;30.40;50.00
9448;DHT22;4762;48.128;11.376;2022-07-29T11:34:23;30.20;49.90
9448;DHT22;4762;48.128;11.376;2022-07-29T11:36:25;31.70;49.10
9448;DHT22;4762;48.128;11.376;2022-07-29T11:38:30;31.30;48.30
9448;DHT22;4762;48.128;11.376;2022-07-29T11:40:32;30.50;49.40
9448;DHT22;4762;48.128;11.376;2022-07-29T11:42:38;30.90;48.20
9448;DHT22;4762;48.128;11.376;2022-07-29T11:47:01;30.80;48.40
9448;DHT22;4762;48.128;11.376;2022-07-29T11:49:11;30.50;48.80
9448;DHT22;4762;48.128;11.376;2022-07-29T11:51:13;30.30;48.30
9448;DHT22;4762;48.128;11.376;2022-07-29T11:53:20;30.50;49.80
9448;DHT22;4762;48.128;11.376;2022-07-29T11:55:23;29.30;50.40
9448;DHT22;4762;48.128;11.376;2022-07-29T11:57:26;30.20;49.30
9448;DHT22;4762;48.128;11.376;2022-07-29T11:59:29;31.40;49.30
9448;DHT22;4762;48.128;11.376;2022-07-29T12:01:32;31.50;47.30
9448;DHT22;4762;48.128;11.376;2022-07-29T12:03:41;30.60;47.70
9448;DHT22;4762;48.128;11.376;2022-07-29T12:05:47;30.70;49.10
9448;DHT22;4762;48.128;11.376;2022-07-29T12:07:49;29.70;50.40
9448;DHT22;4762;48.128;11.376;2022-07-29T12:09:53;30.20;51.20
9448;DHT22;4762;48.128;11.376;2022-07-29T12:11:58;30.20;49.90
9448;DHT22;4762;48.128;11.376;2022-07-29T12:14:03;30.10;48.40
9448;DHT22;4762;48.128;11.376;2022-07-29T12:16:07;29.40;50.40
9448;DHT22;4762;48.128;11.376;2022-07-29T12:35:34;29.40;50.60
9448;DHT22;4762;48.128;11.376;2022-07-29T12:37:38;29.20;50.10
9448;DHT22;4762;48.128;11.376;2022-07-29T12:39:41;29.10;52.30
9448;DHT22;4762;48.128;11.376;2022-07-29T12:41:44;28.90;51.50
9448;DHT22;4762;48.128;11.376;2022-07-29T12:43:52;28.70;52.60
9448;DHT22;4762;48.128;11.376;2022-07-29T12:45:54;28.60;52.70
9448;DHT22;4762;48.128;11.376;2022-07-29T12:47:56;28.60;52.70
9448;DHT22;4762;48.128;11.376;2022-07-29T12:52:25;28.80;53.00
9448;DHT22;4762;48.128;11.376;2022-07-29T12:54:26;28.30;53.90
9448;DHT22;4762;48.128;11.376;2022-07-29T12:56:37;27.90;54.20
9448;DHT22;4762;48.128;11.376;2022-07-29T12:58:40;27.80;55.90
9448;DHT22;4762;48.128;11.376;2022-07-29T13:00:47;27.50;56.00
9448;DHT22;4762;48.128;11.376;2022-07-29T13:20:08;26.80;56.30
9448;DHT22;4762;48.128;11.376;2022-07-29T13:22:12;27.30;57.00
9448;DHT22;4762;48.128;11.376;2022-07-29T13:24:14;27.50;56.70
9448;DHT22;4762;48.128;11.376;2022-07-29T13:26:17;27.00;55.50
9448;DHT22;4762;48.128;11.376;2022-07-29T13:28:19;26.80;55.50
9448;DHT22;4762;48.128;11.376;2022-07-29T13:30:22;26.70;56.10
9448;DHT22;4762;48.128;11.376;2022-07-29T13:32:24;26.60;55.40
9448;DHT22;4762;48.128;11.376;2022-07-29T13:34:26;26.70;57.70
9448;DHT22;4762;48.128;11.376;2022-07-29T13:36:29;26.80;56.90
9448;DHT22;4762;48.128;11.376;2022-07-29T13:38:31;26.70;57.20
9448;DHT22;4762;48.128;11.376;2022-07-29T13:40:33;26.30;58.40
9448;DHT22;4762;48.128;11.376;2022-07-29T13:42:36;26.40;57.50
9448;DHT22;4762;48.128;11.376;2022-07-29T14:01:56;26.90;56.80
9448;DHT22;4762;48.128;11.376;2022-07-29T14:04:00;26.90;56.00
9448;DHT22;4762;48.128;11.376;2022-07-29T14:06:05;27.10;56.20
9448;DHT22;4762;48.128;11.376;2022-07-29T14:08:07;27.30;56.60
9448;DHT22;4762;48.128;11.376;2022-07-29T14:10:09;26.90;57.30
9448;DHT22;4762;48.128;11.376;2022-07-29T14:12:12;26.60;57.20
9448;DHT22;4762;48.128;11.376;2022-07-29T14:14:14;26.50;57.60
9448;DHT22;4762;48.128;11.376;2022-07-29T14:16:16;26.20;59.30
9448;DHT22;4762;48.128;11.376;2022-07-29T14:18:19;26.60;57.90
9448;DHT22;4762;48.128;11.376;2022-07-29T14:20:23;26.50;58.80
9448;DHT22;4762;48.128;11.376;2022-07-29T14:22:28;26.80;58.30
9448;DHT22;4762;48.128;11.376;2022-07-29T14:24:31;27.20;58.40
9448;DHT22;4762;48.128;11.376;2022-07-29T14:26:34;27.40;56.60
9448;DHT22;4762;48.128;11.376;2022-07-29T14:28:37;27.60;59.00
9448;DHT22;4762;48.128;11.376;2022-07-29T14:30:39;27.10;58.00
9448;DHT22;4762;48.128;11.376;2022-07-29T14:32:42;27.10;58.40
9448;DHT22;4762;48.128;11.376;2022-07-29T14:34:45;27.80;57.70
9448;DHT22;4762;48.128;11.376;2022-07-29T14:36:48;27.60;57.90
9448;DHT22;4762;48.128;11.376;2022-07-29T14:38:50;27.50;57.80
9448;DHT22;4762;48.128;11.376;2022-07-29T14:40:52;27.20;57.60
9448;DHT22;4762;48.128;11.376;2022-07-29T14:42:54;27.40;57.60
9448;DHT22;4762;48.128;11.376;2022-07-29T14:44:57;26.70;58.40
9448;DHT22;4762;48.128;11.376;2022-07-29T15:18:56;25.90;65.00
9448;DHT22;4762;48.128;11.376;2022-07-29T15:20:59;25.50;64.80
9448;DHT22;4762;48.128;11.376;2022-07-29T15:23:02;25.40;65.10
9448;DHT22;4762;48.128;11.376;2022-07-29T15:25:05;25.70;64.90
9448;DHT22;4762;48.128;11.376;2022-07-29T15:27:07;25.60;65.00
9448;DHT22;4762;48.128;11.376;2022-07-29T15:29:10;25.90;65.10
9448;DHT22;4762;48.128;11.376;2022-07-29T15:31:12;25.90;64.20
9448;DHT22;4762;48.128;11.376;2022-07-29T15:33:15;25.70;64.60
9448;DHT22;4762;48.128;11.376;2022-07-29T15:35:18;25.80;64.30
9448;DHT22;4762;48.128;11.376;2022-07-29T15:37:28;25.40;65.20
9448;DHT22;4762;48.128;11.376;2022-07-29T15:39:31;25.60;65.00
9448;DHT22;4762;48.128;11.376;2022-07-29T15:41:35;25.70;64.70
9448;DHT22;4762;48.128;11.376;2022-07-29T15:43:37;25.80;65.30
9448;DHT22;4762;48.128;11.376;2022-07-29T15:45:40;25.80;64.50
9448;DHT22;4762;48.128;11.376;2022-07-29T15:47:42;25.70;65.50
9448;DHT22;4762;48.128;11.376;2022-07-29T15:49:45;25.50;65.00
9448;DHT22;4762;48.128;11.376;2022-07-29T15:51:47;25.50;65.20
9448;DHT22;4762;48.128;11.376;2022-07-29T15:53:49;25.10;65.30
9448;DHT22;4762;48.128;11.376;2022-07-29T15:55:53;25.10;65.30
9448;DHT22;4762;48.128;11.376;2022-07-29T15:57:56;25.00;66.30
9448;DHT22;4762;48.128;11.376;2022-07-29T15:59:58;25.30;65.30
9448;DHT22;4762;48.128;11.376;2022-07-29T16:02:01;25.10;65.50
9448;DHT22;4762;48.128;11.376;2022-07-29T16:04:04;25.00;66.00
9448;DHT22;4762;48.128;11.376;2022-07-29T16:06:09;24.80;65.40
9448;DHT22;4762;48.128;11.376;2022-07-29T16:08:12;25.10;66.30
9448;DHT22;4762;48.128;11.376;2022-07-29T16:10:14;25.20;65.50
9448;DHT22;4762;48.128;11.376;2022-07-29T16:12:18;25.00;66.30
9448;DHT22;4762;48.128;11.376;2022-07-29T16:14:22;25.20;66.30
9448;DHT22;4762;48.128;11.376;2022-07-29T16:16:24;25.20;65.70
9448;DHT22;4762;48.128;11.376;2022-07-29T16:18:27;25.00;65.90
9448;DHT22;4762;48.128;11.376;2022-07-29T16:20:29;24.90;66.70
9448;DHT22;4762;48.128;11.376;2022-07-29T16:22:32;24.70;66.70
9448;DHT22;4762;48.128;11.376;2022-07-29T16:24:34;24.80;67.10
9448;DHT22;4762;48.128;11.376;2022-07-29T16:26:37;24.70;67.20
9448;DHT22;4762;48.128;11.376;2022-07-29T16:28:39;24.60;67.30
9448;DHT22;4762;48.128;11.376;2022-07-29T16:30:41;24.60;67.00
9448;DHT22;4762;48.128;11.376;2022-07-29T16:32:44;24.50;69.60
9448;DHT22;4762;48.128;11.376;2022-07-29T16:34:46;24.20;71.80
9448;DHT22;4762;48.128;11.376;2022-07-29T16:36:48;23.70;74.10
9448;DHT22;4762;48.128;11.376;2022-07-29T16:38:52;23.60;77.80
9448;DHT22;4762;48.128;11.376;2022-07-29T16:58:13;22.70;78.00
9448;DHT22;4762;48.128;11.376;2022-07-29T17:00:17;22.50;78.50
9448;DHT22;4762;48.128;11.376;2022-07-29T17:04:51;22.40;79.10
9448;DHT22;4762;48.128;11.376;2022-07-29T17:06:53;22.50;79.70
9448;DHT22;4762;48.128;11.376;2022-07-29T17:08:56;22.50;80.30
9448;DHT22;4762;48.128;11.376;2022-07-29T17:10:59;22.30;78.50
9448;DHT22;4762;48.128;11.376;2022-07-29T17:13:02;22.20;77.70
9448;DHT22;4762;48.128;11.376;2022-07-29T17:15:06;22.20;77.90
9448;DHT22;4762;48.128;11.376;2022-07-29T17:17:09;22.00;77.20
9448;DHT22;4762;48.128;11.376;2022-07-29T17:19:11;21.70;77.80